Time;durP1;ratioP1;P1;durP2;ratioP2;P2;SDS_P1;SDS_P2;PMS_P1;PMS_P2;Temp;Humidity;BMP_temperature;BMP_pressure;BME280_temperature;BME280_humidity;BME280_pressure;Samples;Min_cycle;Max_cycle;Signal;HPM_P1;HPM_P2
2023/03/19 00:01:58;;;;;;;12.53;9.90;;;;;;;11.16;83.75;97823.72;4105963;28;21076;-85
2023/03/19 00:04:17;;;;;;;15.37;10.80;;;;;;;11.13;84.06;97823.94;4135442;28;20674;-85
2023/03/19 00:06:21;;;;;;;10.10;8.90;;;;;;;11.11;83.93;97823.25;4127998;28;21112;-85
2023/03/19 00:08:26;;;;;;;12.03;9.30;;;;;;;11.12;84.35;97827.50;4119948;28;20632;-85
2023/03/19 00:10:29;;;;;;;13.20;9.47;;;;;;;11.14;83.77;97830.84;4120833;28;20743;-85
2023/03/19 00:12:32;;;;;;;9.73;8.00;;;;;;;11.15;83.82;97832.50;4122900;28;20641;-85
2023/03/19 00:14:35;;;;;;;13.33;8.90;;;;;;;11.16;84.22;97835.94;4121530;28;20626;-85
2023/03/19 00:16:39;;;;;;;14.50;8.33;;;;;;;11.15;84.02;97837.72;4122414;28;20639;-85
2023/03/19 00:18:42;;;;;;;10.23;8.33;;;;;;;11.15;83.88;97837.72;4137575;28;21449;-85
2023/03/19 00:20:45;;;;;;;12.10;8.10;;;;;;;11.14;85.33;97836.06;4116869;28;20647;-85
2023/03/19 00:22:48;;;;;;;10.80;8.80;;;;;;;11.16;84.61;97834.16;4127964;28;20635;-85
2023/03/19 00:24:53;;;;;;;10.40;7.80;;;;;;;11.16;84.06;97834.16;4118669;28;20678;-85
2023/03/19 00:26:56;;;;;;;9.00;7.90;;;;;;;11.14;85.22;97836.06;4118880;28;20826;-85
2023/03/19 00:29:01;;;;;;;11.80;9.07;;;;;;;11.13;85.39;97838.78;4120642;28;20683;-85
2023/03/19 00:31:09;;;;;;;11.33;8.80;;;;;;;11.12;85.33;97834.50;4126940;28;21256;-85
2023/03/19 00:33:12;;;;;;;11.50;9.57;;;;;;;11.07;83.83;97842.66;4136079;28;20638;-85
2023/03/19 00:35:15;;;;;;;13.77;9.80;;;;;;;11.04;84.94;97844.69;4121071;28;20647;-85
2023/03/19 00:37:18;;;;;;;10.33;9.23;;;;;;;11.03;83.97;97846.44;4120807;28;21240;-85
2023/03/19 00:39:22;;;;;;;13.00;9.63;;;;;;;11.02;84.60;97847.41;4120525;28;20651;-85
2023/03/19 00:41:27;;;;;;;11.80;9.50;;;;;;;11.03;84.63;97848.22;4126621;28;20631;-85
2023/03/19 00:43:30;;;;;;;13.83;9.07;;;;;;;11.01;84.47;97850.94;4122464;28;20754;-85
2023/03/19 00:45:33;;;;;;;11.00;8.83;;;;;;;11.01;84.06;97850.94;4116893;28;20636;-85
2023/03/19 00:47:37;;;;;;;10.77;8.53;;;;;;;10.99;85.57;97844.16;4132195;28;21249;-85
2023/03/19 00:49:40;;;;;;;10.73;8.40;;;;;;;10.98;85.68;97853.78;4122594;28;20655;-85
2023/03/19 00:51:44;;;;;;;8.43;7.57;;;;;;;10.98;85.04;97848.56;4124364;28;20765;-85
2023/03/19 00:53:48;;;;;;;9.43;8.30;;;;;;;10.95;85.68;97845.38;4121270;28;20693;-85
2023/03/19 00:55:51;;;;;;;10.97;8.90;;;;;;;10.97;85.79;97852.13;4126810;28;20632;-85
2023/03/19 00:57:56;;;;;;;11.40;8.77;;;;;;;10.93;86.09;97848.09;4120551;28;20635;-85
2023/03/19 00:59:59;;;;;;;11.27;8.13;;;;;;;10.92;86.02;97850.81;4124139;28;20742;-85
2023/03/19 01:02:03;;;;;;;12.57;7.67;;;;;;;10.90;86.20;97852.72;4122970;28;20685;-85
2023/03/19 01:04:06;;;;;;;12.70;8.50;;;;;;;10.89;85.92;97846.63;4109103;28;20703;-85
2023/03/19 01:06:10;;;;;;;10.33;7.40;;;;;;;10.88;86.04;97850.22;4118870;28;20668;-85
2023/03/19 01:08:13;;;;;;;11.33;7.83;;;;;;;10.87;86.01;97847.72;4126918;28;20700;-85
2023/03/19 01:10:17;;;;;;;8.90;7.83;;;;;;;10.84;86.39;97846.16;4135526;28;20623;-85
2023/03/19 01:12:21;;;;;;;10.27;7.63;;;;;;;10.85;86.55;97850.44;4103064;28;21063;-85
2023/03/19 01:14:25;;;;;;;7.90;7.10;;;;;;;10.82;85.86;97848.06;4131574;28;20670;-85
2023/03/19 01:16:28;;;;;;;9.57;7.27;;;;;;;10.82;86.75;97848.06;4118036;28;20633;-85
2023/03/19 01:18:32;;;;;;;10.40;8.07;;;;;;;10.83;86.81;97838.44;4135696;28;21049;-85
2023/03/19 01:20:36;;;;;;;13.37;7.83;;;;;;;10.81;86.09;97846.38;4109834;28;20658;-85
2023/03/19 01:22:41;;;;;;;10.60;8.20;;;;;;;10.82;86.82;97845.44;4134270;28;20639;-85
2023/03/19 01:24:45;;;;;;;10.77;7.67;;;;;;;10.80;86.62;97841.28;4134174;28;20654;-85
2023/03/19 01:26:49;;;;;;;10.73;8.07;;;;;;;10.79;86.34;97847.41;4123694;28;20645;-85
2023/03/19 01:29:01;;;;;;;8.50;7.57;;;;;;;10.79;86.85;97844.00;4115486;28;20645;-85
2023/03/19 01:31:08;;;;;;;11.20;8.00;;;;;;;10.77;86.32;97846.72;4115460;28;20627;-85
2023/03/19 01:33:30;;;;;;;10.93;7.07;;;;;;;10.75;87.17;97847.75;4118818;28;20675;-85
2023/03/19 01:35:38;;;;;;;7.80;7.00;;;;;;;10.76;87.12;97854.66;4104127;28;20730;-85
2023/03/19 01:37:42;;;;;;;14.47;7.30;;;;;;;10.78;86.07;97848.38;4134185;28;20649;-85
2023/03/19 01:39:46;;;;;;;9.10;6.97;;;;;;;10.79;86.28;97849.22;4123984;28;20642;-85
2023/03/19 01:41:50;;;;;;;9.00;7.43;;;;;;;10.77;86.05;97849.31;4123837;28;20637;-85
2023/03/19 01:44:24;;;;;;;12.10;7.20;;;;;;;10.76;86.52;97849.44;4120835;28;20663;-85
2023/03/19 01:46:47;;;;;;;10.40;7.60;;;;;;;10.74;87.43;97844.31;4118697;28;20623;-85
2023/03/19 01:49:27;;;;;;;8.23;7.43;;;;;;;10.75;87.51;97847.75;4123744;28;21051;-85
2023/03/19 01:51:51;;;;;;;8.00;7.20;;;;;;;10.76;87.17;97849.44;4113195;28;20685;-85
2023/03/19 01:54:10;;;;;;;8.50;7.70;;;;;;;10.76;87.06;97862.47;4125816;28;20631;-85
2023/03/19 01:56:26;;;;;;;9.00;6.93;;;;;;;10.78;87.13;97866.66;4104445;28;20636;-85
2023/03/19 01:58:34;;;;;;;10.00;7.60;;;;;;;10.77;87.02;97867.56;4139664;28;21214;-85
2023/03/19 02:00:51;;;;;;;10.63;7.20;;;;;;;10.76;86.75;97870.28;4113109;28;21277;-85
2023/03/19 02:03:00;;;;;;;9.43;7.00;;;;;;;10.73;86.97;97876.56;4124716;28;20670;-85
2023/03/19 02:05:30;;;;;;;11.90;7.70;;;;;;;10.74;86.93;97883.44;4129797;28;20658;-85
2023/03/19 02:07:41;;;;;;;9.37;7.10;;;;;;;10.78;87.13;97879.69;4130481;28;20650;-85
2023/03/19 02:09:45;;;;;;;8.63;7.10;;;;;;;10.77;87.21;97885.00;4120412;28;21057;-85
2023/03/19 02:11:50;;;;;;;7.83;7.00;;;;;;;10.75;87.45;97892.09;4103160;28;20648;-85
2023/03/19 02:13:53;;;;;;;8.90;7.00;;;;;;;10.73;88.06;97897.41;4121208;28;20646;-85
2023/03/19 02:15:57;;;;;;;8.07;7.27;;;;;;;10.72;88.43;97900.13;4121236;28;20663;-85
2023/03/19 02:18:03;;;;;;;9.27;7.40;;;;;;;10.75;87.91;97905.13;4104541;28;20635;-85
2023/03/19 02:20:11;;;;;;;8.87;7.20;;;;;;;10.75;88.97;97906.00;4108692;28;20751;-85
2023/03/19 02:22:18;;;;;;;8.80;7.07;;;;;;;10.77;88.16;97901.47;4131818;28;20631;-85
2023/03/19 02:24:25;;;;;;;8.30;6.97;;;;;;;10.77;88.38;97905.88;4106450;28;20845;-85
2023/03/19 02:26:38;;;;;;;8.47;7.53;;;;;;;10.76;88.38;97904.19;4122646;28;20631;-86
2023/03/19 02:28:44;;;;;;;13.80;8.40;;;;;;;10.74;88.39;97904.31;4107571;28;21211;-85
2023/03/19 02:30:51;;;;;;;11.23;7.50;;;;;;;10.72;88.56;97927.06;4118622;28;20651;-85
2023/03/19 02:32:55;;;;;;;11.17;7.30;;;;;;;10.72;89.20;97926.22;4109378;28;20649;-85
2023/03/19 02:34:59;;;;;;;14.00;7.87;;;;;;;10.69;88.93;97922.06;4101061;28;20742;-85
2023/03/19 02:37:08;;;;;;;9.00;7.37;;;;;;;10.70;88.91;97928.94;4119976;28;20744;-85
2023/03/19 02:39:17;;;;;;;7.73;6.97;;;;;;;10.69;88.77;97922.06;4137980;28;20711;-85
2023/03/19 02:41:25;;;;;;;7.73;6.50;;;;;;;10.66;89.19;97927.50;4109949;28;20666;-85
2023/03/19 02:43:30;;;;;;;8.30;6.43;;;;;;;10.65;88.62;97928.44;4117787;28;21363;-85
2023/03/19 02:45:34;;;;;;;11.20;6.90;;;;;;;10.65;88.99;97933.66;4121381;28;20657;-85
2023/03/19 02:47:38;;;;;;;7.57;6.40;;;;;;;10.66;89.81;97937.09;4101477;28;20683;-85
2023/03/19 02:49:41;;;;;;;10.90;6.77;;;;;;;10.66;88.92;97937.09;4124231;28;20641;-86
2023/03/19 02:51:45;;;;;;;9.57;7.53;;;;;;;10.63;88.81;97932.94;4124305;28;20654;-85
2023/03/19 02:53:49;;;;;;;10.67;7.10;;;;;;;10.62;89.13;97944.31;4107317;28;20628;-85
2023/03/19 02:55:54;;;;;;;9.00;6.90;;;;;;;10.64;90.08;97946.81;4136097;28;21161;-85
2023/03/19 02:57:58;;;;;;;8.80;6.87;;;;;;;10.63;89.30;97934.69;4118734;28;20639;-85
2023/03/19 03:00:04;;;;;;;10.17;7.90;;;;;;;10.64;89.73;97939.81;4120423;28;20820;-85
2023/03/19 03:02:08;;;;;;;10.97;7.90;;;;;;;10.64;89.54;97942.41;4122683;28;20639;-85
2023/03/19 03:04:15;;;;;;;9.37;7.77;;;;;;;10.61;89.60;97934.81;4122763;28;20715;-85
2023/03/19 03:06:19;;;;;;;8.23;7.20;;;;;;;10.61;90.22;97936.59;4121121;28;21154;-85
2023/03/19 03:08:23;;;;;;;9.47;7.50;;;;;;;10.58;89.73;97936.81;4119516;28;20644;-85
2023/03/19 03:10:27;;;;;;;8.50;7.20;;;;;;;10.57;89.62;97937.75;4119695;28;20669;-86
2023/03/19 03:12:31;;;;;;;8.30;6.50;;;;;;;10.55;89.40;97937.03;4104980;28;20683;-85
2023/03/19 03:14:35;;;;;;;11.67;8.10;;;;;;;10.53;89.45;97933.69;4125378;28;20631;-85
2023/03/19 03:16:39;;;;;;;15.13;7.17;;;;;;;10.46;90.26;97940.28;4117045;28;20637;-85
2023/03/19 03:18:46;;;;;;;9.00;7.33;;;;;;;10.45;90.33;97943.84;4135272;28;20728;-85
2023/03/19 03:20:49;;;;;;;8.87;7.00;;;;;;;10.47;90.07;97945.38;4138695;28;20974;-85
2023/03/19 03:22:53;;;;;;;8.30;6.43;;;;;;;10.47;90.22;97947.16;4125812;28;20655;-85
2023/03/19 03:24:57;;;;;;;7.53;6.60;;;;;;;10.49;90.01;97951.34;4138603;28;20650;-85
2023/03/19 03:27:00;;;;;;;8.40;6.80;;;;;;;10.57;89.64;97956.84;4121599;28;21204;-85
2023/03/19 03:29:04;;;;;;;9.67;7.37;;;;;;;10.65;90.04;97961.53;4125688;28;20646;-85
2023/03/19 03:31:08;;;;;;;10.80;7.00;;;;;;;10.69;89.07;97957.72;4122705;28;20770;-85
2023/03/19 03:33:16;;;;;;;11.60;7.10;;;;;;;10.71;89.87;97955.88;4108076;28;21411;-89
2023/03/19 03:35:21;;;;;;;10.57;6.70;;;;;;;10.75;90.18;97954.69;4136601;28;20637;-89
2023/03/19 03:37:25;;;;;;;10.17;7.70;;;;;;;10.77;90.58;97958.06;4122115;28;20638;-89
2023/03/19 03:39:29;;;;;;;10.60;8.23;;;;;;;10.80;90.31;97962.09;4111931;28;20710;-89
2023/03/19 03:41:33;;;;;;;11.00;8.03;;;;;;;10.87;90.57;97957.28;4112428;28;20746;-89
2023/03/19 03:43:38;;;;;;;10.77;7.97;;;;;;;10.91;90.31;97963.94;4106555;28;21384;-89
2023/03/19 03:45:42;;;;;;;10.43;7.60;;;;;;;10.94;90.42;97964.53;4123025;28;20761;-89
2023/03/19 03:47:46;;;;;;;10.30;8.23;;;;;;;10.94;90.01;97959.31;4124523;28;20730;-89
2023/03/19 03:49:51;;;;;;;10.30;8.37;;;;;;;10.96;90.58;97965.28;4122020;28;20997;-89
2023/03/19 03:51:56;;;;;;;10.50;8.50;;;;;;;10.98;90.97;97960.78;4113100;28;20644;-89
2023/03/19 03:54:00;;;;;;;12.20;7.90;;;;;;;11.02;91.30;97964.84;4143542;28;20641;-88
2023/03/19 03:56:04;;;;;;;10.47;7.70;;;;;;;11.05;91.40;97966.38;4124016;28;20623;-89
2023/03/19 03:58:07;;;;;;;14.33;8.23;;;;;;;11.05;91.98;97962.00;4129351;28;20635;-89
2023/03/19 04:00:11;;;;;;;8.60;7.03;;;;;;;11.05;91.33;97962.00;4113622;28;21419;-89
2023/03/19 04:02:19;;;;;;;7.40;6.70;;;;;;;11.05;91.14;97962.00;4121843;28;20643;-88
2023/03/19 04:04:22;;;;;;;8.23;7.40;;;;;;;11.05;92.37;97962.00;4121602;28;20667;-88
2023/03/19 04:06:27;;;;;;;10.10;7.63;;;;;;;10.95;91.77;97955.78;4140383;28;20650;-88
2023/03/19 04:08:47;;;;;;;10.53;8.40;;;;;;;10.91;92.72;97949.09;4119984;28;20640;-87
2023/03/19 04:10:51;;;;;;;11.73;7.77;;;;;;;10.86;92.87;97943.38;4124258;28;21022;-88
2023/03/19 04:12:54;;;;;;;11.30;8.07;;;;;;;10.84;93.24;97942.66;4108903;28;20636;-88
2023/03/19 04:14:57;;;;;;;8.67;7.40;;;;;;;10.86;92.90;97945.16;4113205;28;20627;-88
2023/03/19 04:17:00;;;;;;;9.03;7.57;;;;;;;10.91;93.40;97949.09;4138473;28;20646;-88
2023/03/19 04:19:04;;;;;;;13.77;8.70;;;;;;;10.91;93.88;97954.31;4108123;28;20699;-88
2023/03/19 04:21:07;;;;;;;9.03;8.10;;;;;;;10.91;94.40;97945.66;4118809;28;20734;-88
2023/03/19 04:23:12;;;;;;;10.97;7.70;;;;;;;10.91;93.47;97951.72;4106734;28;20642;-87
2023/03/19 04:25:17;;;;;;;9.97;8.30;;;;;;;10.89;93.91;97951.00;4124291;28;20893;-88
2023/03/19 04:27:20;;;;;;;9.37;7.97;;;;;;;10.84;93.10;97947.06;4127017;28;20696;-88
2023/03/19 04:29:24;;;;;;;13.13;8.00;;;;;;;10.76;93.16;97946.75;4137497;28;20649;-87
2023/03/19 04:31:27;;;;;;;9.53;7.50;;;;;;;10.75;93.48;97958.16;4137877;28;20650;-87
2023/03/19 04:33:31;;;;;;;10.20;6.43;;;;;;;10.69;93.44;97948.16;4103150;28;21219;-87
2023/03/19 04:35:34;;;;;;;9.63;6.70;;;;;;;10.66;92.77;97955.34;4123463;28;20984;-88
2023/03/19 04:37:37;;;;;;;9.43;7.13;;;;;;;10.64;92.98;97959.84;4122184;28;20650;-88
2023/03/19 04:39:43;;;;;;;7.90;6.40;;;;;;;10.62;93.58;97961.75;4120997;28;20639;-88
2023/03/19 04:41:49;;;;;;;9.90;6.70;;;;;;;10.60;93.89;97961.84;4117367;28;20671;-88
2023/03/19 04:44:06;;;;;;;7.00;6.30;;;;;;;10.60;93.53;97961.00;4141225;28;21121;-88
2023/03/19 04:46:10;;;;;;;8.50;6.73;;;;;;;10.58;93.33;97960.28;4109695;28;21089;-88
2023/03/19 04:48:13;;;;;;;11.23;6.43;;;;;;;10.60;94.16;97966.22;4141438;28;20653;-88
2023/03/19 04:50:17;;;;;;;8.37;6.30;;;;;;;10.60;93.62;97968.81;4122267;28;21301;-88
2023/03/19 04:52:21;;;;;;;8.23;6.20;;;;;;;10.58;93.79;97966.31;4133269;28;20635;-88
2023/03/19 04:54:25;;;;;;;6.80;5.80;;;;;;;10.56;93.99;97972.59;4122464;28;20655;-87
2023/03/19 04:56:29;;;;;;;12.40;6.30;;;;;;;10.58;93.91;97978.53;4119687;28;21181;-88
2023/03/19 04:58:32;;;;;;;6.53;5.80;;;;;;;10.57;93.50;97980.31;4109835;28;20647;-88
2023/03/19 05:00:38;;;;;;;9.53;5.83;;;;;;;10.60;93.99;97987.06;4107401;28;20632;-88
2023/03/19 05:02:42;;;;;;;6.30;5.70;;;;;;;10.60;93.93;97984.47;4110691;28;20672;-88
2023/03/19 05:04:45;;;;;;;7.20;5.80;;;;;;;10.59;93.66;97983.63;4118973;28;20675;-88
2023/03/19 05:06:50;;;;;;;6.90;6.20;;;;;;;10.61;93.52;97986.13;4137591;28;20655;-88
2023/03/19 05:08:53;;;;;;;9.13;5.70;;;;;;;10.60;93.72;97993.13;4106993;28;20691;-89
2023/03/19 05:10:57;;;;;;;6.83;6.13;;;;;;;10.60;93.46;97987.06;4109070;28;20628;-89
2023/03/19 05:13:05;;;;;;;7.50;5.73;;;;;;;10.61;94.22;97992.19;4125905;28;21160;-88
2023/03/19 05:15:12;;;;;;;7.30;5.83;;;;;;;10.65;93.40;98000.66;4135597;28;20646;-88
2023/03/19 05:17:27;;;;;;;8.23;5.80;;;;;;;10.64;93.43;98001.56;4122249;28;20694;-88
2023/03/19 05:19:49;;;;;;;8.43;6.20;;;;;;;10.62;93.66;97998.25;4135783;28;20633;-88
2023/03/19 05:21:52;;;;;;;7.70;6.57;;;;;;;10.60;93.70;98000.09;4120080;28;20649;-90
2023/03/19 05:23:59;;;;;;;7.03;5.93;;;;;;;10.57;93.22;97998.56;4109702;28;20681;-89
2023/03/19 05:26:05;;;;;;;8.33;6.43;;;;;;;10.49;93.94;98003.50;4122529;28;21824;-89
2023/03/19 05:28:48;;;;;;;9.03;6.33;;;;;;;10.53;94.02;98004.09;4108885;28;20648;-89
2023/03/19 05:30:55;;;;;;;7.30;6.60;;;;;;;10.51;94.37;98006.00;4106621;28;20631;-89
2023/03/19 05:33:03;;;;;;;7.77;6.60;;;;;;;10.57;94.43;98005.53;4120509;28;20635;-89
2023/03/19 05:35:16;;;;;;;10.10;6.60;;;;;;;10.60;94.22;98005.31;4104803;28;20641;-89
2023/03/19 05:37:20;;;;;;;6.50;5.80;;;;;;;10.56;94.81;98011.72;4108102;28;20640;-89
2023/03/19 05:39:29;;;;;;;11.13;6.87;;;;;;;10.58;94.79;98005.44;4139357;28;21130;-89
2023/03/19 05:41:37;;;;;;;9.20;6.30;;;;;;;10.59;94.19;98017.53;4102639;28;21239;-89
2023/03/19 05:43:42;;;;;;;7.90;6.10;;;;;;;10.61;94.10;98018.25;4128199;28;21219;-89
2023/03/19 05:45:55;;;;;;;7.63;6.00;;;;;;;10.63;94.23;98015.53;4104026;28;20641;-89
2023/03/19 05:48:03;;;;;;;6.80;5.87;;;;;;;10.65;93.66;98009.28;4109251;28;20628;-89
2023/03/19 05:50:12;;;;;;;7.00;6.10;;;;;;;10.66;94.05;98013.56;4133963;28;20791;-88
2023/03/19 05:52:21;;;;;;;8.30;6.80;;;;;;;10.67;94.21;98014.41;4122169;28;20642;-88
2023/03/19 05:54:25;;;;;;;9.15;7.05;;;;;;;10.71;94.57;98013.25;4124232;28;20770;-88
2023/03/19 05:56:41;;;;;;;7.40;6.70;;;;;;;10.74;94.90;98013.03;4134863;28;20229;-89
2023/03/19 05:59:10;;;;;;;8.53;6.80;;;;;;;10.79;94.14;98018.75;4117743;28;20740;-88
2023/03/19 06:01:19;;;;;;;12.93;6.80;;;;;;;10.77;94.12;98015.44;4105939;28;20679;-89
2023/03/19 06:03:23;;;;;;;7.70;6.30;;;;;;;10.77;93.55;98018.03;4110444;28;20636;-89
2023/03/19 06:05:27;;;;;;;12.90;6.70;;;;;;;10.77;94.76;98024.09;4118387;28;20978;-89
2023/03/19 06:07:35;;;;;;;9.73;6.47;;;;;;;10.75;94.58;98025.97;4104903;28;20669;-89
2023/03/19 06:09:42;;;;;;;8.67;6.20;;;;;;;10.75;94.27;98025.13;4100860;28;20643;-89
2023/03/19 06:11:46;;;;;;;8.17;6.13;;;;;;;10.76;95.23;98030.22;4124880;28;20646;-88
2023/03/19 06:14:15;;;;;;;8.10;6.27;;;;;;;10.76;95.60;98027.63;4121907;28;20639;-89
2023/03/19 06:16:31;;;;;;;8.83;7.10;;;;;;;10.78;94.77;98037.94;4135104;28;20683;-88
2023/03/19 06:18:35;;;;;;;8.80;6.90;;;;;;;10.78;94.92;98040.56;4124153;28;21057;-88
2023/03/19 06:20:44;;;;;;;8.90;7.03;;;;;;;10.78;94.97;98044.03;4122288;28;20697;-89
2023/03/19 06:22:48;;;;;;;9.10;7.03;;;;;;;10.81;95.61;98049.03;4107982;28;21406;-89
2023/03/19 06:24:51;;;;;;;7.77;6.90;;;;;;;10.81;94.57;98054.25;4109639;28;20715;-88
2023/03/19 06:26:55;;;;;;;10.60;7.33;;;;;;;10.81;95.46;98052.47;4103924;28;20656;-88
2023/03/19 06:28:58;;;;;;;11.53;7.50;;;;;;;10.77;94.86;98052.78;4138028;28;20630;-88
2023/03/19 06:31:01;;;;;;;7.70;7.00;;;;;;;10.77;94.79;98054.56;4102110;28;20731;-88
2023/03/19 06:33:26;;;;;;;7.80;6.50;;;;;;;10.78;94.82;98054.47;4120758;28;20963;-88
2023/03/19 06:35:30;;;;;;;9.03;6.90;;;;;;;10.80;96.12;98061.22;4107119;28;21363;-88
2023/03/19 06:37:33;;;;;;;8.00;7.20;;;;;;;10.82;96.66;98055.88;4125239;28;20681;-88
2023/03/19 06:39:37;;;;;;;8.13;7.20;;;;;;;10.85;95.42;98063.50;4122896;28;20701;-88
2023/03/19 06:41:40;;;;;;;8.73;7.07;;;;;;;10.86;96.30;98059.97;4120747;28;20635;-88
2023/03/19 06:43:51;;;;;;;10.73;6.67;;;;;;;10.87;95.99;98062.47;4116623;28;20673;-88
2023/03/19 06:45:54;;;;;;;7.97;6.93;;;;;;;10.92;96.62;98064.75;4121952;28;20627;-88
2023/03/19 06:47:57;;;;;;;8.47;7.03;;;;;;;10.95;95.23;98065.38;4118581;28;20646;-88
2023/03/19 06:50:03;;;;;;;9.80;6.80;;;;;;;11.01;95.69;98061.50;4132544;28;21304;-89
2023/03/19 06:52:06;;;;;;;7.60;6.80;;;;;;;11.03;95.73;98063.03;4135224;28;20647;-88
2023/03/19 06:54:09;;;;;;;8.90;7.40;;;;;;;11.08;95.34;98062.72;4125027;28;20643;-88
2023/03/19 06:56:13;;;;;;;7.87;7.00;;;;;;;11.13;95.84;98058.84;4139432;28;20676;-88
2023/03/19 06:58:16;;;;;;;8.98;7.28;;;;;;;11.21;94.79;98053.09;4120862;28;21846;-89
2023/03/19 07:00:20;;;;;;;8.13;7.27;;;;;;;11.28;96.10;98069.03;4116616;28;20214;-89
2023/03/19 07:02:23;;;;;;;9.00;7.23;;;;;;;11.34;96.41;98062.53;4124284;28;20734;-88
2023/03/19 07:04:26;;;;;;;9.70;7.07;;;;;;;11.39;95.18;98070.88;4121915;28;20766;-89
2023/03/19 07:06:32;;;;;;;9.90;7.27;;;;;;;11.45;96.24;98068.66;4127911;28;20751;-89
2023/03/19 07:08:35;;;;;;;9.67;7.20;;;;;;;11.53;96.59;98068.13;4127809;28;21117;-88
2023/03/19 07:10:38;;;;;;;7.07;6.37;;;;;;;11.65;95.46;98072.47;4128454;28;20748;-89
2023/03/19 07:12:41;;;;;;;7.73;6.60;;;;;;;11.75;97.13;98073.47;4128400;28;20643;-88
2023/03/19 07:14:46;;;;;;;9.18;7.85;;;;;;;11.88;95.71;98080.31;4120236;28;21202;-89
2023/03/19 07:16:49;;;;;;;8.07;6.80;;;;;;;11.97;97.89;98079.63;4124719;28;24362;-89
2023/03/19 07:18:52;;;;;;;6.33;5.23;;;;;;;12.06;95.00;98076.31;4133936;28;20637;-89
2023/03/19 07:20:55;;;;;;;6.80;5.80;;;;;;;12.12;95.13;98079.31;4141517;28;20685;-89
2023/03/19 07:23:00;;;;;;;7.40;6.10;;;;;;;12.20;93.90;98078.75;4110104;28;20763;-89
2023/03/19 07:25:03;;;;;;;5.50;4.83;;;;;;;12.23;93.94;98088.00;4121999;28;20206;-89
2023/03/19 07:27:06;;;;;;;6.73;5.50;;;;;;;12.33;93.64;98089.00;4124364;28;20731;-89
2023/03/19 07:29:10;;;;;;;9.67;6.93;;;;;;;12.45;92.87;98095.09;4104724;28;20642;-89
2023/03/19 07:31:13;;;;;;;9.90;8.33;;;;;;;12.53;90.62;98090.09;4121360;28;20643;-89
2023/03/19 07:33:16;;;;;;;10.73;9.60;;;;;;;12.63;91.02;98093.66;4121832;28;20665;-88
2023/03/19 07:35:20;;;;;;;14.03;11.33;;;;;;;12.72;92.74;98102.50;4120685;28;20670;-89
2023/03/19 07:37:23;;;;;;;9.70;7.50;;;;;;;12.75;93.81;98102.25;4126204;28;20680;-89
2023/03/19 07:39:27;;;;;;;10.47;8.00;;;;;;;12.77;93.59;98110.00;4124356;28;20643;-86
2023/03/19 07:41:30;;;;;;;8.33;7.53;;;;;;;12.80;92.59;98102.72;4123422;28;20632;-88
2023/03/19 07:43:34;;;;;;;9.57;8.63;;;;;;;12.86;93.50;98104.91;4118475;28;20677;-89
2023/03/19 07:45:37;;;;;;;8.73;6.70;;;;;;;12.95;92.74;98098.97;4124967;28;20741;-88
2023/03/19 07:47:40;;;;;;;12.00;9.50;;;;;;;13.05;94.25;98106.94;4128617;28;21204;-89
2023/03/19 07:49:43;;;;;;;10.50;9.40;;;;;;;13.16;94.51;98114.81;4123691;28;20628;-89
2023/03/19 07:51:46;;;;;;;9.60;8.60;;;;;;;13.25;94.84;98112.28;4126474;28;20645;-89
2023/03/19 07:53:50;;;;;;;6.23;5.60;;;;;;;13.34;92.55;98115.00;4138765;28;21014;-89
2023/03/19 07:55:54;;;;;;;8.75;7.75;;;;;;;13.49;91.43;98111.19;4121607;28;21295;-90
2023/03/19 07:57:57;;;;;;;9.40;7.10;;;;;;;13.69;92.04;98108.63;4124464;28;20213;-89
2023/03/19 08:00:00;;;;;;;7.90;6.03;;;;;;;13.88;90.10;98110.59;4108855;28;20662;-90
2023/03/19 08:02:04;;;;;;;10.03;8.13;;;;;;;13.99;90.33;98111.38;4120027;28;21212;-89
2023/03/19 08:04:07;;;;;;;7.33;6.63;;;;;;;14.07;90.40;98113.41;4117659;28;20676;-86
2023/03/19 08:06:10;;;;;;;8.40;5.60;;;;;;;14.10;88.51;98110.53;4120699;28;20648;-89
2023/03/19 08:08:14;;;;;;;6.20;5.57;;;;;;;14.12;86.88;98104.22;4117304;28;20706;-87
2023/03/19 08:10:17;;;;;;;7.70;6.90;;;;;;;14.17;86.89;98113.34;4135596;28;20633;-86
2023/03/19 08:12:22;;;;;;;7.53;6.57;;;;;;;14.20;86.51;98109.66;4124732;28;20642;-86
2023/03/19 08:14:25;;;;;;;6.80;5.60;;;;;;;14.27;86.43;98116.09;4108383;28;20632;-86
2023/03/19 08:16:28;;;;;;;6.50;4.77;;;;;;;14.30;85.30;98115.81;4109130;28;20641;-86
2023/03/19 08:18:32;;;;;;;6.50;4.90;;;;;;;14.29;84.01;98109.72;4119999;28;20635;-88
2023/03/19 08:20:36;;;;;;;5.63;4.37;;;;;;;14.33;82.54;98112.94;4109277;28;20737;-84
2023/03/19 08:22:40;;;;;;;6.97;4.93;;;;;;;14.38;82.93;98118.63;4136178;28;20755;-83
2023/03/19 08:24:43;;;;;;;5.40;4.00;;;;;;;14.44;81.65;98110.25;4119179;28;21205;-83
2023/03/19 08:26:47;;;;;;;5.43;3.90;;;;;;;14.51;81.29;98119.25;4122240;28;20664;-83
2023/03/19 08:28:52;;;;;;;6.23;4.03;;;;;;;14.58;81.73;98116.00;4139407;28;20658;-83
2023/03/19 08:30:55;;;;;;;5.30;3.63;;;;;;;14.67;80.62;98123.09;4123817;28;20708;-83
2023/03/19 08:32:59;;;;;;;4.97;3.63;;;;;;;14.72;79.57;98116.53;4127482;28;21263;-83
2023/03/19 08:35:02;;;;;;;4.60;3.57;;;;;;;14.80;80.54;98129.00;4128020;28;20633;-84
2023/03/19 08:37:08;;;;;;;5.83;4.00;;;;;;;14.84;80.81;98118.13;4120340;28;20634;-84
2023/03/19 08:39:12;;;;;;;6.73;4.33;;;;;;;14.89;79.63;98123.78;4119554;28;20643;-85
2023/03/19 08:41:15;;;;;;;7.23;3.67;;;;;;;14.93;80.39;98119.97;4112614;28;20642;-85
2023/03/19 08:43:18;;;;;;;4.40;3.43;;;;;;;14.96;81.04;98119.69;4116106;28;20680;-87
2023/03/19 08:45:23;;;;;;;4.20;3.33;;;;;;;14.98;79.91;98119.56;4118369;28;20694;-83
2023/03/19 08:47:26;;;;;;;4.67;3.57;;;;;;;14.98;79.83;98109.88;4114691;28;20664;-83
2023/03/19 08:49:29;;;;;;;4.00;3.60;;;;;;;14.96;79.85;98117.06;4125402;28;21107;-84
2023/03/19 08:51:33;;;;;;;4.53;3.30;;;;;;;14.98;80.20;98117.75;4138505;28;20634;-83
2023/03/19 08:53:37;;;;;;;4.33;3.00;;;;;;;15.02;79.97;98116.56;4140902;28;20706;-83
2023/03/19 08:55:41;;;;;;;6.10;3.40;;;;;;;15.05;78.80;98115.44;4119899;28;20694;-82
2023/03/19 08:57:44;;;;;;;3.90;3.30;;;;;;;15.07;78.20;98124.88;4127991;28;20639;-83
2023/03/19 08:59:47;;;;;;;5.20;3.70;;;;;;;15.05;78.37;98124.16;4116620;28;20637;-83
2023/03/19 09:01:53;;;;;;;4.30;3.23;;;;;;;15.06;79.98;98130.25;4128233;28;20652;-82
2023/03/19 09:03:56;;;;;;;4.13;3.70;;;;;;;15.12;78.82;98128.78;4138572;28;20719;-82
2023/03/19 09:06:00;;;;;;;5.20;3.40;;;;;;;15.20;79.35;98122.88;4120899;28;20642;-81
2023/03/19 09:08:03;;;;;;;8.50;3.40;;;;;;;15.27;79.43;98126.63;4107771;28;21154;-82
2023/03/19 09:10:07;;;;;;;4.87;3.50;;;;;;;15.26;77.26;98119.69;4121899;28;20646;-82
2023/03/19 09:12:14;;;;;;;3.43;2.83;;;;;;;15.28;79.14;98128.31;4123504;28;20640;-82
2023/03/19 09:14:18;;;;;;;7.50;5.43;;;;;;;15.36;78.69;98131.91;4131871;28;20667;-82
2023/03/19 09:16:22;;;;;;;11.17;8.00;;;;;;;15.36;78.64;98133.72;4104589;28;20650;-82
2023/03/19 09:18:27;;;;;;;4.07;3.10;;;;;;;15.38;78.52;98134.41;4124145;28;20649;-82
2023/03/19 09:20:30;;;;;;;4.13;3.20;;;;;;;15.43;78.30;98133.06;4109022;28;21062;-82
2023/03/19 09:22:33;;;;;;;4.57;3.53;;;;;;;15.39;76.92;98126.41;4121233;28;21880;-82
2023/03/19 09:24:36;;;;;;;4.57;3.27;;;;;;;15.43;77.72;98133.06;4124870;28;20654;-82
2023/03/19 09:26:42;;;;;;;4.10;3.23;;;;;;;15.46;77.53;98131.97;4134424;28;20637;-82
2023/03/19 09:28:46;;;;;;;3.90;3.00;;;;;;;15.53;76.56;98120.78;4121703;28;21024;-82
2023/03/19 09:30:50;;;;;;;3.47;3.17;;;;;;;15.62;77.70;98122.59;4118469;28;20634;-87
2023/03/19 09:32:54;;;;;;;3.60;3.20;;;;;;;15.75;78.38;98124.00;4122408;28;20641;-82
2023/03/19 09:34:59;;;;;;;3.70;3.03;;;;;;;15.87;78.50;98120.28;4115403;28;20678;-83
2023/03/19 09:37:02;;;;;;;7.27;3.00;;;;;;;16.01;75.50;98130.41;4115256;28;20772;-81
2023/03/19 09:39:06;;;;;;;19.70;13.93;;;;;;;16.14;76.06;98134.44;4125439;28;20722;-81
2023/03/19 09:41:10;;;;;;;4.47;3.10;;;;;;;16.28;75.11;98136.72;4125342;28;20645;-82
2023/03/19 09:43:34;;;;;;;4.10;3.03;;;;;;;16.47;75.57;98138.50;4117379;28;20641;-82
2023/03/19 09:45:38;;;;;;;5.00;2.80;;;;;;;16.58;75.43;98137.38;4101017;28;20834;-82
2023/03/19 09:47:42;;;;;;;3.33;2.60;;;;;;;16.67;74.07;98133.06;4119300;28;20641;-82
2023/03/19 09:49:47;;;;;;;4.80;3.80;;;;;;;16.98;74.65;98144.09;4106018;28;20749;-82
2023/03/19 09:51:54;;;;;;;3.47;2.63;;;;;;;17.12;73.33;98134.91;4121595;28;20642;-82